Time;durP1;ratioP1;P1;durP2;ratioP2;P2;SDS_P1;SDS_P2;PMS_P1;PMS_P2;Temp;Humidity;BMP_temperature;BMP_pressure;BME280_temperature;BME280_humidity;BME280_pressure;Samples;Min_cycle;Max_cycle;Signal;HPM_P1;HPM_P2
2020/12/18 00:01:43;;;;;;;21.92;10.40;;;2.50;99.90;;;;;;4988455;28;20261;-73
2020/12/18 00:04:10;;;;;;;19.98;10.85;;;2.50;99.90;;;;;;4990067;28;20323;-73
2020/12/18 00:06:36;;;;;;;17.08;9.00;;;2.40;99.90;;;;;;4991111;28;20207;-73
2020/12/18 00:09:04;;;;;;;12.80;8.25;;;2.40;99.90;;;;;;4991000;28;20529;-73
2020/12/18 00:11:32;;;;;;;8.63;7.47;;;2.40;99.90;;;;;;4990650;28;20222;-73
2020/12/18 00:13:59;;;;;;;11.52;7.85;;;2.40;99.90;;;;;;4989565;28;20223;-73
2020/12/18 00:16:26;;;;;;;9.38;7.75;;;2.40;99.90;;;;;;4990070;28;20587;-73
2020/12/18 00:18:53;;;;;;;10.40;7.95;;;2.40;99.90;;;;;;4990910;28;20226;-73
2020/12/18 00:21:21;;;;;;;9.43;8.20;;;2.30;99.90;;;;;;4990115;28;20204;-73
2020/12/18 00:23:47;;;;;;;10.80;7.40;;;2.30;99.90;;;;;;4990240;28;20218;-73
2020/12/18 00:26:14;;;;;;;9.10;7.93;;;2.30;99.90;;;;;;4990195;28;20215;-73
2020/12/18 00:28:41;;;;;;;10.00;7.40;;;2.30;99.90;;;;;;4990086;28;20250;-72
2020/12/18 00:31:08;;;;;;;8.88;7.65;;;2.30;99.90;;;;;;4976295;28;20192;-73
2020/12/18 00:33:34;;;;;;;11.35;8.43;;;2.30;99.90;;;;;;4970408;28;20219;-73
2020/12/18 00:36:01;;;;;;;11.65;8.40;;;2.30;99.90;;;;;;4985702;28;20836;-73
2020/12/18 00:38:27;;;;;;;8.90;8.00;;;2.20;99.90;;;;;;4993146;28;20230;-73
2020/12/18 00:40:53;;;;;;;12.85;8.55;;;2.10;99.90;;;;;;4996724;28;20634;-73
2020/12/18 00:43:19;;;;;;;11.30;8.48;;;2.10;99.90;;;;;;4992504;28;20227;-73
2020/12/18 00:45:47;;;;;;;11.23;8.77;;;2.10;99.90;;;;;;4992602;28;20251;-72
2020/12/18 00:48:13;;;;;;;11.57;8.60;;;2.10;99.90;;;;;;4991233;28;20349;-73
2020/12/18 00:50:40;;;;;;;10.48;8.32;;;2.10;99.90;;;;;;4991439;28;20218;-73
2020/12/18 00:53:07;;;;;;;11.45;8.55;;;2.00;99.90;;;;;;4990097;28;20224;-73
2020/12/18 00:55:34;;;;;;;10.48;8.20;;;1.90;99.90;;;;;;4990460;28;20210;-72
2020/12/18 00:58:00;;;;;;;12.20;8.75;;;1.90;99.90;;;;;;4991208;28;20224;-73
2020/12/18 01:00:27;;;;;;;10.52;8.95;;;1.90;99.90;;;;;;4991046;28;20268;-73
2020/12/18 01:02:54;;;;;;;11.95;8.80;;;1.90;99.90;;;;;;4990934;28;20219;-73
2020/12/18 01:05:20;;;;;;;10.43;8.48;;;1.90;99.90;;;;;;4990752;28;20223;-73
2020/12/18 01:07:47;;;;;;;10.18;8.65;;;1.90;99.90;;;;;;4991606;28;20203;-73
2020/12/18 01:10:13;;;;;;;11.00;9.20;;;1.90;99.90;;;;;;4991126;28;20565;-73
2020/12/18 01:12:39;;;;;;;9.60;8.07;;;1.90;99.90;;;;;;4990961;28;20234;-73
2020/12/18 01:15:05;;;;;;;12.13;9.10;;;1.90;99.90;;;;;;4991529;28;20691;-73
2020/12/18 01:17:31;;;;;;;11.52;8.40;;;1.90;99.90;;;;;;4990444;28;20222;-73
2020/12/18 01:19:58;;;;;;;10.45;8.13;;;1.90;99.90;;;;;;4991467;28;20210;-73
2020/12/18 01:22:25;;;;;;;15.05;8.60;;;1.90;99.90;;;;;;4990186;28;20713;-73
2020/12/18 01:24:51;;;;;;;10.73;8.18;;;1.90;99.90;;;;;;4990896;28;20223;-73
2020/12/18 01:27:17;;;;;;;10.30;8.55;;;1.90;99.90;;;;;;4990727;28;20210;-73
2020/12/18 01:29:43;;;;;;;10.25;8.40;;;1.90;99.90;;;;;;4990584;28;20211;-73
2020/12/18 01:32:10;;;;;;;9.32;7.78;;;1.90;99.90;;;;;;4990281;28;20211;-73
2020/12/18 01:34:36;;;;;;;11.52;8.30;;;1.90;99.90;;;;;;4989824;28;20199;-73
2020/12/18 01:37:03;;;;;;;10.18;8.25;;;1.80;99.90;;;;;;4990629;28;20199;-73
2020/12/18 01:39:29;;;;;;;11.18;8.35;;;1.80;99.90;;;;;;4990274;28;20297;-73
2020/12/18 01:41:55;;;;;;;9.60;7.97;;;1.80;99.90;;;;;;4989963;28;20211;-73
2020/12/18 01:44:21;;;;;;;9.32;7.88;;;1.80;99.90;;;;;;4990329;28;20277;-73
2020/12/18 01:46:48;;;;;;;9.60;7.50;;;1.80;99.90;;;;;;4990475;28;20667;-73
2020/12/18 01:49:14;;;;;;;10.95;8.90;;;1.90;99.90;;;;;;4990220;28;20226;-72
2020/12/18 01:51:41;;;;;;;9.65;7.88;;;1.90;99.90;;;;;;4989689;28;20203;-72
2020/12/18 01:54:08;;;;;;;11.82;7.20;;;2.00;99.90;;;;;;4990095;28;20726;-72
2020/12/18 01:56:34;;;;;;;8.88;7.43;;;2.00;99.90;;;;;;4989481;28;20203;-72
2020/12/18 01:59:01;;;;;;;10.15;8.30;;;2.00;99.90;;;;;;4990292;28;20211;-72
2020/12/18 02:01:27;;;;;;;9.68;8.35;;;2.10;99.90;;;;;;4989771;28;20207;-72
2020/12/18 02:03:54;;;;;;;9.88;8.75;;;2.10;99.90;;;;;;4989568;28;20565;-72
2020/12/18 02:06:21;;;;;;;14.32;8.50;;;2.20;99.90;;;;;;4988400;28;20234;-72
2020/12/18 02:08:50;;;;;;;8.80;7.68;;;2.20;99.90;;;;;;4990040;28;20584;-71
2020/12/18 02:11:21;;;;;;;11.60;8.70;;;2.30;99.90;;;;;;4989879;28;20644;-71
2020/12/18 02:13:48;;;;;;;10.70;8.55;;;2.30;99.90;;;;;;4989281;28;20234;-71
2020/12/18 02:16:15;;;;;;;9.70;7.80;;;2.40;99.90;;;;;;4989142;28;20740;-71
2020/12/18 02:18:41;;;;;;;9.85;7.95;;;2.40;99.90;;;;;;4989504;28;20203;-71
2020/12/18 02:21:08;;;;;;;12.48;8.48;;;2.40;99.90;;;;;;4989497;28;20214;-71
2020/12/18 02:23:38;;;;;;;9.27;8.27;;;2.40;99.90;;;;;;4988985;28;20223;-71
2020/12/18 02:26:07;;;;;;;11.13;8.93;;;2.40;99.90;;;;;;4989605;28;20725;-71
2020/12/18 02:28:36;;;;;;;12.88;8.88;;;2.40;99.90;;;;;;4989572;28;20206;-71
2020/12/18 02:31:03;;;;;;;11.13;8.70;;;2.40;99.90;;;;;;4988908;28;20701;-71
2020/12/18 02:33:30;;;;;;;9.23;7.35;;;2.40;99.90;;;;;;4988999;28;20226;-71
2020/12/18 02:35:57;;;;;;;10.98;7.93;;;2.40;99.90;;;;;;4988964;28;20230;-71
2020/12/18 02:38:23;;;;;;;10.70;8.55;;;2.40;99.90;;;;;;4988817;28;20547;-71
2020/12/18 02:40:49;;;;;;;9.60;7.55;;;2.40;99.90;;;;;;4989490;28;20207;-71
2020/12/18 02:43:16;;;;;;;11.35;8.77;;;2.50;99.90;;;;;;4988458;28;20234;-71
2020/12/18 02:45:43;;;;;;;9.48;8.05;;;2.60;99.90;;;;;;4989541;28;20231;-71
2020/12/18 02:48:09;;;;;;;12.80;9.10;;;2.60;99.90;;;;;;4989614;28;20207;-72
2020/12/18 02:50:36;;;;;;;8.95;7.85;;;2.60;99.90;;;;;;4989251;28;20676;-72
2020/12/18 02:53:12;;;;;;;9.65;8.25;;;2.60;99.90;;;;;;4989126;28;20227;-71
2020/12/18 02:55:39;;;;;;;9.00;7.45;;;2.60;99.90;;;;;;4998948;28;20199;-71
2020/12/18 02:58:05;;;;;;;10.95;8.02;;;2.60;99.90;;;;;;5003053;28;20210;-72
2020/12/18 03:00:32;;;;;;;9.48;8.05;;;2.60;99.90;;;;;;4989385;28;20211;-71
2020/12/18 03:02:58;;;;;;;8.85;7.65;;;2.60;99.90;;;;;;4989325;28;20218;-72
2020/12/18 03:05:24;;;;;;;9.40;7.90;;;2.60;99.90;;;;;;4989363;28;20226;-72
2020/12/18 03:07:50;;;;;;;9.65;7.40;;;2.50;99.90;;;;;;4988891;28;20249;-72
2020/12/18 03:10:17;;;;;;;9.43;8.40;;;2.50;99.90;;;;;;4989108;28;20203;-72
2020/12/18 03:12:43;;;;;;;9.38;8.25;;;2.50;99.90;;;;;;4988450;28;20226;-71
2020/12/18 03:15:09;;;;;;;10.00;7.63;;;2.50;99.90;;;;;;4989229;28;20203;-72
2020/12/18 03:17:36;;;;;;;13.02;8.75;;;2.50;99.90;;;;;;4988940;28;20667;-72
2020/12/18 03:20:03;;;;;;;11.27;8.13;;;2.60;99.90;;;;;;4989029;28;20214;-71
2020/12/18 03:22:31;;;;;;;8.48;7.57;;;2.60;99.90;;;;;;4988402;28;20227;-71
2020/12/18 03:24:57;;;;;;;9.77;8.18;;;2.60;99.90;;;;;;4989031;28;20223;-71
2020/12/18 03:27:24;;;;;;;8.60;7.63;;;2.80;99.90;;;;;;4989210;28;20214;-71
2020/12/18 03:29:50;;;;;;;9.50;7.95;;;2.80;99.90;;;;;;4989040;28;20210;-72
2020/12/18 03:32:16;;;;;;;8.35;7.43;;;2.80;99.90;;;;;;4988064;28;20207;-72
2020/12/18 03:34:43;;;;;;;9.00;8.10;;;2.90;99.90;;;;;;4989225;28;20207;-72
2020/12/18 03:37:10;;;;;;;9.88;8.70;;;2.90;99.90;;;;;;4988899;28;20210;-72
2020/12/18 03:39:36;;;;;;;11.70;9.00;;;2.90;99.90;;;;;;4989125;28;20207;-72
2020/12/18 03:42:02;;;;;;;9.13;8.02;;;2.90;99.90;;;;;;4988128;28;20625;-70
2020/12/18 03:44:28;;;;;;;8.88;7.78;;;3.00;99.90;;;;;;4988371;28;20226;-71
2020/12/18 03:46:54;;;;;;;10.13;8.35;;;3.00;99.90;;;;;;4988903;28;20203;-71
2020/12/18 03:49:21;;;;;;;11.77;9.48;;;3.10;99.90;;;;;;4989235;28;20199;-72
2020/12/18 03:51:48;;;;;;;10.25;8.60;;;3.10;99.90;;;;;;4992264;28;20207;-71
2020/12/18 03:54:14;;;;;;;10.32;8.48;;;3.20;99.90;;;;;;4992386;28;20619;-71
2020/12/18 03:56:40;;;;;;;10.32;8.35;;;3.20;99.90;;;;;;4993207;28;20207;-72
2020/12/18 03:59:06;;;;;;;11.05;8.43;;;3.20;99.90;;;;;;4992312;28;20729;-71
2020/12/18 04:01:33;;;;;;;10.52;8.45;;;3.20;99.90;;;;;;4992177;28;20211;-71
2020/12/18 04:03:59;;;;;;;9.13;8.20;;;3.30;99.90;;;;;;4991831;28;20230;-71
2020/12/18 04:06:25;;;;;;;10.48;8.05;;;3.40;99.90;;;;;;4992312;28;20229;-71
2020/12/18 04:08:52;;;;;;;10.35;8.77;;;3.40;99.90;;;;;;4992313;28;20257;-71
2020/12/18 04:11:18;;;;;;;9.10;8.02;;;3.50;99.90;;;;;;4991612;28;20202;-71
2020/12/18 04:13:44;;;;;;;7.70;6.90;;;3.50;99.90;;;;;;4991655;28;20595;-71
2020/12/18 04:16:11;;;;;;;9.27;8.20;;;3.40;99.90;;;;;;4992022;28;20195;-72
2020/12/18 04:18:37;;;;;;;8.13;7.15;;;3.50;99.90;;;;;;4992206;28;20338;-72
2020/12/18 04:21:03;;;;;;;8.88;7.70;;;3.50;99.90;;;;;;4992227;28;20218;-72
2020/12/18 04:23:29;;;;;;;12.43;7.80;;;3.50;99.90;;;;;;4991495;28;20733;-72
2020/12/18 04:25:56;;;;;;;9.98;8.10;;;3.50;99.90;;;;;;4991861;28;20231;-72
2020/12/18 04:28:23;;;;;;;10.32;8.77;;;3.60;99.90;;;;;;4991835;28;20207;-72
2020/12/18 04:30:51;;;;;;;8.73;7.82;;;3.60;99.90;;;;;;4992463;28;20682;-71
2020/12/18 04:33:17;;;;;;;8.73;7.82;;;3.70;99.90;;;;;;4991249;28;20309;-72
2020/12/18 04:35:44;;;;;;;11.02;8.52;;;3.70;99.90;;;;;;4991676;28;20200;-71
2020/12/18 04:38:13;;;;;;;9.00;6.75;;;3.70;99.90;;;;;;4991604;28;20687;-70
2020/12/18 04:40:40;;;;;;;13.95;9.00;;;3.70;99.90;;;;;;4981421;28;20200;-71
2020/12/18 04:43:07;;;;;;;9.43;8.23;;;3.80;99.90;;;;;;4971981;28;20665;-70
2020/12/18 04:45:34;;;;;;;8.68;7.78;;;3.80;99.90;;;;;;4977541;28;20218;-71
2020/12/18 04:48:02;;;;;;;11.65;8.18;;;3.80;99.90;;;;;;4991368;28;20234;-71
2020/12/18 04:50:29;;;;;;;8.98;7.55;;;3.70;99.90;;;;;;4991143;28;20211;-72
2020/12/18 04:52:57;;;;;;;8.80;7.35;;;3.80;99.90;;;;;;4988831;28;20588;-71
2020/12/18 04:55:27;;;;;;;8.10;7.30;;;3.80;99.90;;;;;;4988718;28;20219;-72
2020/12/18 04:57:54;;;;;;;9.60;7.72;;;3.80;99.90;;;;;;4972042;28;20239;-70
2020/12/18 05:00:21;;;;;;;8.23;7.32;;;3.80;99.90;;;;;;4971300;28;20200;-72
2020/12/18 05:02:48;;;;;;;8.95;7.95;;;3.90;99.90;;;;;;4971166;28;20223;-71
2020/12/18 05:05:14;;;;;;;9.18;7.93;;;3.90;99.90;;;;;;4971977;28;20234;-72
2020/12/18 05:07:40;;;;;;;9.30;8.30;;;3.90;99.90;;;;;;4971248;28;20200;-71
2020/12/18 05:10:08;;;;;;;9.73;8.15;;;3.90;99.90;;;;;;4982518;28;20206;-71
2020/12/18 05:12:35;;;;;;;8.95;7.82;;;3.90;99.90;;;;;;4989734;28;20231;-71
2020/12/18 05:15:01;;;;;;;10.25;8.38;;;3.90;99.90;;;;;;4988890;28;20647;-70
2020/12/18 05:17:28;;;;;;;11.38;8.52;;;3.90;99.90;;;;;;4988938;28;20207;-70
2020/12/18 05:19:55;;;;;;;9.45;8.02;;;4.00;99.90;;;;;;4977314;28;20228;-70
2020/12/18 05:22:24;;;;;;;8.95;7.65;;;4.00;99.90;;;;;;4974007;28;20219;-70
2020/12/18 05:24:51;;;;;;;9.90;8.00;;;4.10;99.90;;;;;;4971377;28;20247;-71
2020/12/18 05:27:17;;;;;;;8.35;7.35;;;4.00;99.90;;;;;;4977090;28;20195;-71
2020/12/18 05:29:44;;;;;;;8.27;7.30;;;4.00;99.90;;;;;;4979126;28;20204;-70
2020/12/18 05:32:13;;;;;;;9.55;7.50;;;4.00;99.90;;;;;;4968029;28;20207;-70
2020/12/18 05:34:40;;;;;;;8.45;7.55;;;4.00;99.90;;;;;;4968370;28;20679;-70
2020/12/18 05:37:07;;;;;;;10.68;8.23;;;4.00;99.90;;;;;;4987594;28;20685;-70
2020/12/18 05:39:34;;;;;;;9.23;7.75;;;4.00;99.90;;;;;;4988015;28;20207;-71
2020/12/18 05:42:02;;;;;;;12.15;8.70;;;4.00;99.90;;;;;;4988333;28;20733;-72
2020/12/18 05:44:29;;;;;;;9.82;8.82;;;4.00;99.90;;;;;;4988752;28;20261;-71
2020/12/18 05:47:02;;;;;;;11.05;9.52;;;4.10;99.90;;;;;;4989834;28;20262;-71
2020/12/18 05:49:31;;;;;;;13.73;9.55;;;4.10;99.90;;;;;;4990032;28;20215;-71
2020/12/18 05:51:58;;;;;;;10.50;9.45;;;4.10;99.90;;;;;;4989559;28;20203;-71
2020/12/18 05:54:32;;;;;;;9.32;8.20;;;4.20;99.90;;;;;;4990351;28;20224;-71
2020/12/18 05:56:58;;;;;;;12.10;9.10;;;4.20;99.90;;;;;;4989941;28;20218;-71
2020/12/18 05:59:24;;;;;;;10.05;8.52;;;4.30;99.90;;;;;;5062304;23;20234;-74
2020/12/18 06:01:52;;;;;;;9.73;8.73;;;4.30;99.90;;;;;;5008374;28;20257;-74
2020/12/18 06:04:19;;;;;;;10.15;8.15;;;4.30;99.90;;;;;;5009741;28;20244;-76
2020/12/18 06:06:48;;;;;;;10.65;8.90;;;4.30;99.90;;;;;;5009395;28;20233;-76
2020/12/18 06:09:18;;;;;;;11.27;9.18;;;4.30;99.90;;;;;;5008780;28;20690;-76
2020/12/18 06:11:45;;;;;;;9.30;8.30;;;4.30;99.90;;;;;;5006849;28;20211;-76
2020/12/18 06:14:13;;;;;;;8.45;7.65;;;4.30;99.90;;;;;;5008467;28;20520;-76
2020/12/18 06:16:44;;;;;;;10.93;8.80;;;4.30;99.90;;;;;;4992397;28;20206;-76
2020/12/18 06:19:12;;;;;;;9.80;8.80;;;4.20;99.90;;;;;;4990048;28;20211;-76
2020/12/18 06:21:39;;;;;;;9.20;8.25;;;4.20;99.90;;;;;;4988718;28;20210;-76
2020/12/18 06:24:05;;;;;;;10.10;7.95;;;4.20;99.90;;;;;;4989377;28;20611;-76
2020/12/18 06:26:33;;;;;;;9.63;8.00;;;4.30;99.90;;;;;;4989017;28;20282;-76
2020/12/18 06:29:04;;;;;;;9.43;7.78;;;4.30;99.90;;;;;;4985411;28;20195;-76
2020/12/18 06:31:31;;;;;;;10.88;9.30;;;4.30;99.90;;;;;;4989114;28;20207;-76
2020/12/18 06:34:00;;;;;;;11.85;9.00;;;4.30;99.90;;;;;;4989217;28;20734;-75
2020/12/18 06:36:53;;;;;;;9.43;8.43;;;4.40;99.90;;;;;;4990682;28;20557;-76
2020/12/18 06:39:21;;;;;;;9.35;8.13;;;4.40;99.90;;;;;;4982265;28;20207;-76
2020/12/18 06:41:48;;;;;;;9.35;7.65;;;4.40;99.90;;;;;;4988972;28;20230;-75
2020/12/18 06:44:34;;;;;;;9.05;8.15;;;4.40;99.90;;;;;;4989574;28;20301;-75
2020/12/18 06:47:12;;;;;;;10.15;7.45;;;4.40;99.90;;;;;;4988932;28;20210;-75
2020/12/18 06:50:05;;;;;;;7.60;6.80;;;4.30;99.90;;;;;;4989041;28;20261;-75
2020/12/18 06:52:52;;;;;;;8.52;7.47;;;4.30;99.90;;;;;;4988349;28;20234;-75
2020/12/18 06:55:41;;;;;;;8.38;7.30;;;4.30;99.90;;;;;;4989001;28;20199;-75
2020/12/18 06:58:32;;;;;;;8.25;7.05;;;4.20;99.90;;;;;;4989306;28;20211;-75
2020/12/18 07:00:59;;;;;;;8.27;7.07;;;4.20;99.90;;;;;;4989444;28;20207;-75
2020/12/18 07:03:37;;;;;;;8.63;7.72;;;4.20;99.90;;;;;;4987691;28;20277;-74
2020/12/18 07:06:05;;;;;;;10.40;7.50;;;4.20;99.90;;;;;;4989309;28;20273;-74
2020/12/18 07:08:32;;;;;;;8.77;7.85;;;4.20;99.90;;;;;;4988854;28;20211;-74
2020/12/18 07:11:02;;;;;;;8.40;7.60;;;4.10;99.90;;;;;;4989045;28;20207;-75
2020/12/18 07:13:30;;;;;;;10.50;7.63;;;4.00;99.90;;;;;;4988157;28;20230;-76
2020/12/18 07:16:05;;;;;;;9.55;7.93;;;4.10;99.90;;;;;;4988268;28;20435;-76
2020/12/18 07:18:34;;;;;;;9.65;8.15;;;4.00;99.90;;;;;;4988847;28;20206;-76
2020/12/18 07:21:02;;;;;;;9.10;6.78;;;4.00;99.90;;;;;;4989521;28;20592;-75
2020/12/18 07:23:30;;;;;;;8.23;7.43;;;4.00;99.90;;;;;;4988912;28;20222;-76
2020/12/18 07:25:58;;;;;;;9.35;7.85;;;3.90;99.90;;;;;;4992481;28;20789;-76
2020/12/18 07:28:26;;;;;;;9.57;7.93;;;3.90;99.90;;;;;;4991228;28;20241;-76
2020/12/18 07:30:55;;;;;;;9.82;8.82;;;3.90;99.90;;;;;;4992709;28;20206;-76
2020/12/18 07:33:23;;;;;;;8.73;7.68;;;3.90;99.90;;;;;;4991999;28;20254;-76
2020/12/18 07:35:51;;;;;;;9.23;7.70;;;3.90;99.90;;;;;;4992272;28;20612;-76
2020/12/18 07:38:19;;;;;;;10.45;7.78;;;4.00;99.90;;;;;;4993064;28;20213;-76
2020/12/18 07:40:48;;;;;;;11.65;7.82;;;4.00;99.90;;;;;;4992106;28;20207;-76
2020/12/18 07:43:16;;;;;;;7.63;6.85;;;4.00;99.90;;;;;;4991999;28;20314;-77
2020/12/18 07:45:44;;;;;;;10.38;7.82;;;4.10;99.90;;;;;;4992462;28;20234;-76
2020/12/18 07:48:13;;;;;;;8.98;7.80;;;4.10;99.90;;;;;;4992742;28;20261;-76
2020/12/18 07:50:39;;;;;;;11.25;8.25;;;4.20;99.90;;;;;;4992139;28;20215;-76
2020/12/18 07:53:09;;;;;;;8.13;7.18;;;4.20;99.90;;;;;;4990684;28;20230;-76
2020/12/18 07:55:36;;;;;;;8.35;7.10;;;4.20;99.90;;;;;;4991503;28;20567;-76
2020/12/18 07:58:02;;;;;;;10.93;8.50;;;4.30;99.90;;;;;;4992159;28;20234;-76
2020/12/18 08:00:28;;;;;;;8.77;7.63;;;4.30;99.90;;;;;;4992115;28;20246;-76
2020/12/18 08:02:55;;;;;;;8.65;7.75;;;4.40;99.90;;;;;;4992170;28;20223;-76
2020/12/18 08:05:22;;;;;;;9.38;7.18;;;4.40;99.90;;;;;;4992070;28;20226;-76
2020/12/18 08:07:50;;;;;;;7.53;6.53;;;4.50;99.90;;;;;;4991765;28;20203;-76
2020/12/18 08:10:17;;;;;;;9.48;7.15;;;4.50;99.90;;;;;;4992174;28;20203;-76
2020/12/18 08:12:49;;;;;;;8.90;7.80;;;4.50;99.90;;;;;;4991266;28;20788;-76
2020/12/18 08:15:15;;;;;;;8.30;7.45;;;4.60;99.90;;;;;;4992322;28;20563;-76
2020/12/18 08:17:42;;;;;;;9.32;7.25;;;4.60;99.90;;;;;;4991065;28;20218;-76
2020/12/18 08:20:13;;;;;;;9.13;6.65;;;4.70;99.90;;;;;;4992089;28;20262;-76
2020/12/18 08:22:43;;;;;;;8.70;7.80;;;4.70;99.90;;;;;;4991193;28;20227;-76
2020/12/18 08:25:11;;;;;;;9.73;7.93;;;4.80;99.90;;;;;;4991799;28;20227;-76
2020/12/18 08:27:45;;;;;;;8.48;7.63;;;4.80;99.90;;;;;;4991295;28;20234;-76
2020/12/18 08:30:16;;;;;;;8.27;7.47;;;4.90;99.90;;;;;;4990877;28;20257;-76
2020/12/18 08:32:47;;;;;;;10.57;9.40;;;5.00;99.90;;;;;;4990710;28;20241;-76
2020/12/18 08:35:19;;;;;;;9.68;8.45;;;5.10;99.90;;;;;;4990644;28;20294;-76
2020/12/18 08:37:48;;;;;;;11.85;9.57;;;5.20;99.90;;;;;;4991405;28;20233;-76
2020/12/18 08:40:18;;;;;;;11.02;9.30;;;5.20;99.90;;;;;;4991452;28;20203;-76
2020/12/18 08:42:45;;;;;;;11.25;9.60;;;5.30;99.90;;;;;;4989723;28;20235;-76
2020/12/18 08:45:11;;;;;;;12.95;10.05;;;5.30;99.90;;;;;;4991430;28;20230;-76
2020/12/18 08:47:37;;;;;;;11.20;9.43;;;5.40;99.90;;;;;;4991101;28;20298;-76
2020/12/18 08:50:05;;;;;;;11.52;9.48;;;5.50;99.90;;;;;;4991448;28;20275;-76
2020/12/18 08:52:31;;;;;;;9.93;8.93;;;5.70;99.90;;;;;;4990324;28;20713;-76
2020/12/18 08:55:04;;;;;;;12.75;9.25;;;5.80;99.90;;;;;;4990883;28;20627;-76
2020/12/18 08:57:31;;;;;;;9.55;8.32;;;5.90;99.90;;;;;;4990764;28;20210;-76
2020/12/18 09:00:04;;;;;;;13.23;9.07;;;6.10;99.90;;;;;;4991260;28;20242;-76
2020/12/18 09:02:32;;;;;;;10.68;8.70;;;6.30;99.90;;;;;;4990415;28;20273;-76
2020/12/18 09:05:12;;;;;;;10.65;9.45;;;6.50;99.90;;;;;;4990748;28;20577;-76
2020/12/18 09:07:40;;;;;;;12.70;9.05;;;6.70;99.90;;;;;;4990114;28;20214;-76
2020/12/18 09:10:08;;;;;;;10.10;8.52;;;6.90;99.90;;;;;;4990627;28;20203;-76
2020/12/18 09:12:41;;;;;;;10.75;8.25;;;7.00;99.90;;;;;;4990058;28;20227;-76
2020/12/18 09:15:25;;;;;;;10.05;8.95;;;7.10;99.90;;;;;;4990112;28;20246;-76
2020/12/18 09:17:59;;;;;;;11.52;8.27;;;7.10;99.90;;;;;;4990675;28;20203;-76
2020/12/18 09:20:26;;;;;;;8.90;8.00;;;7.20;99.90;;;;;;4989942;28;20230;-76
2020/12/18 09:22:56;;;;;;;10.52;8.10;;;7.40;99.90;;;;;;4990157;28;20730;-76
2020/12/18 09:25:23;;;;;;;8.77;7.32;;;7.80;99.90;;;;;;4990548;28;20219;-76
2020/12/18 09:27:54;;;;;;;8.20;7.40;;;9.10;99.90;;;;;;4990664;28;20594;-76
2020/12/18 09:30:25;;;;;;;8.50;7.20;;;11.00;99.90;;;;;;4990523;28;20632;-76
2020/12/18 09:33:30;;;;;;;7.40;6.43;;;12.80;99.90;;;;;;4983543;28;20223;-76
2020/12/18 09:35:58;;;;;;;8.45;7.55;;;14.40;99.90;;;;;;4978026;28;20199;-76
2020/12/18 09:38:26;;;;;;;7.00;6.17;;;16.10;99.90;;;;;;4989806;28;20206;-76
2020/12/18 09:40:53;;;;;;;7.40;5.73;;;17.50;99.90;;;;;;4990132;28;21008;-76
2020/12/18 09:43:20;;;;;;;7.13;6.43;;;18.50;99.90;;;;;;4988645;28;20490;-76
2020/12/18 09:45:47;;;;;;;9.80;6.43;;;19.20;99.90;;;;;;4989717;28;20904;-76
2020/12/18 09:48:13;;;;;;;8.07;6.00;;;19.80;99.90;;;;;;4990053;28;20459;-76
2020/12/18 09:50:40;;;;;;;7.30;5.83;;;20.20;99.90;;;;;;4989867;28;21017;-77
2020/12/18 09:53:06;;;;;;;6.40;5.80;;;20.80;99.90;;;;;;4989476;28;20857;-74
2020/12/18 09:55:33;;;;;;;6.40;5.80;;;21.10;99.60;;;;;;4989534;28;20516;-76
2020/12/18 09:58:01;;;;;;;6.97;6.30;;;21.20;99.60;;;;;;4990073;28;20499;-76
2020/12/18 10:00:27;;;;;;;6.90;6.30;;;21.80;98.80;;;;;;4989657;28;20833;-76
2020/12/18 10:02:54;;;;;;;7.23;6.57;;;22.00;98.60;;;;;;4989372;28;20487;-74
2020/12/18 10:05:20;;;;;;;6.43;5.83;;;22.10;97.80;;;;;;4988499;28;20500;-77
2020/12/18 10:07:46;;;;;;;6.40;5.80;;;22.60;96.80;;;;;;4989377;28;20470;-76
2020/12/18 10:10:12;;;;;;;6.00;5.40;;;23.30;96.50;;;;;;4989383;28;20458;-77
2020/12/18 10:12:39;;;;;;;6.87;5.23;;;23.60;94.60;;;;;;4988932;28;21080;-77
2020/12/18 10:15:06;;;;;;;5.20;4.80;;;23.80;94.80;;;;;;4980947;28;20477;-75
2020/12/18 10:17:32;;;;;;;5.73;4.70;;;22.60;94.60;;;;;;4989670;28;20463;-75
2020/12/18 10:19:58;;;;;;;4.73;4.33;;;21.90;95.40;;;;;;4989507;28;20524;-77
2020/12/18 10:22:25;;;;;;;5.47;4.90;;;22.00;95.20;;;;;;4988622;28;20486;-77
2020/12/18 10:24:51;;;;;;;5.07;4.57;;;21.60;95.20;;;;;;4989410;28;20477;-77
2020/12/18 10:27:18;;;;;;;5.60;4.93;;;21.60;95.20;;;;;;4989065;28;20462;-76
2020/12/18 10:29:44;;;;;;;5.40;4.87;;;21.00;95.20;;;;;;4989279;28;20593;-76
2020/12/18 10:32:11;;;;;;;5.13;4.60;;;20.70;95.80;;;;;;4988006;28;20472;-76
2020/12/18 10:34:37;;;;;;;5.33;4.83;;;19.50;96.20;;;;;;4989442;28;20966;-77
2020/12/18 10:37:03;;;;;;;4.87;4.47;;;20.00;96.80;;;;;;4989548;28;20461;-76
2020/12/18 10:39:30;;;;;;;4.73;4.33;;;20.60;96.90;;;;;;4989253;28;20520;-77
2020/12/18 10:41:56;;;;;;;7.03;4.63;;;21.40;95.80;;;;;;4988488;28;20891;-77
2020/12/18 10:44:22;;;;;;;5.27;4.63;;;22.10;94.80;;;;;;4988738;28;20509;-77
2020/12/18 10:46:50;;;;;;;4.53;4.23;;;22.50;95.00;;;;;;4988981;28;20490;-76
2020/12/18 10:49:17;;;;;;;4.27;3.87;;;22.70;93.20;;;;;;4989348;28;20470;-76
2020/12/18 10:51:45;;;;;;;4.63;4.23;;;22.00;93.30;;;;;;4988565;28;20489;-76
2020/12/18 10:54:12;;;;;;;5.27;4.77;;;21.70;94.30;;;;;;4988842;28;20488;-76
2020/12/18 10:56:42;;;;;;;4.80;4.30;;;22.20;93.50;;;;;;4988993;28;20458;-76
2020/12/18 10:59:10;;;;;;;4.67;4.20;;;21.90;93.10;;;;;;4988310;28;20473;-77
2020/12/18 11:01:36;;;;;;;4.77;4.30;;;20.90;94.20;;;;;;4988328;28;20481;-77
2020/12/18 11:04:03;;;;;;;4.97;4.47;;;20.70;94.60;;;;;;4988992;28;20519;-76
2020/12/18 11:06:30;;;;;;;5.00;4.60;;;21.20;95.00;;;;;;4987834;28;20490;-77
2020/12/18 11:08:57;;;;;;;4.93;4.43;;;21.90;94.20;;;;;;4989207;28;20881;-77
2020/12/18 11:11:23;;;;;;;4.63;4.23;;;22.40;93.90;;;;;;4988185;28;20868;-77
2020/12/18 11:13:50;;;;;;;4.93;4.50;;;23.40;92.90;;;;;;4988353;28;20477;-76
2020/12/18 11:16:17;;;;;;;4.90;4.40;;;24.00;91.80;;;;;;4988818;28;20464;-77
2020/12/18 11:18:44;;;;;;;5.50;4.40;;;24.10;91.50;;;;;;4988981;28;20505;-76
2020/12/18 11:21:10;;;;;;;5.17;4.70;;;23.70;91.50;;;;;;4989321;28;20915;-77
2020/12/18 11:23:37;;;;;;;4.40;4.00;;;23.60;91.50;;;;;;4987919;28;20482;-76
2020/12/18 11:26:04;;;;;;;5.17;4.33;;;23.80;91.60;;;;;;4989041;28;20486;-77
2020/12/18 11:28:30;;;;;;;4.00;3.70;;;23.80;91.50;;;;;;4989270;28;20867;-77
2020/12/18 11:30:56;;;;;;;5.37;4.87;;;23.20;91.80;;;;;;4989386;28;20470;-77
2020/12/18 11:33:22;;;;;;;5.10;4.60;;;23.10;91.90;;;;;;4988007;28;20486;-76
2020/12/18 11:35:48;;;;;;;4.33;3.93;;;22.40;92.40;;;;;;4988157;28;20470;-77
2020/12/18 11:38:15;;;;;;;4.43;4.03;;;22.60;92.60;;;;;;4988922;28;20470;-76
2020/12/18 11:40:42;;;;;;;5.40;4.57;;;22.50;91.90;;;;;;4988714;28;20898;-77
2020/12/18 11:43:08;;;;;;;4.73;4.17;;;22.50;92.40;;;;;;4989597;28;20486;-76
2020/12/18 11:45:34;;;;;;;7.30;4.40;;;22.40;92.30;;;;;;4988126;28;20497;-77
2020/12/18 11:48:01;;;;;;;5.40;4.40;;;22.60;92.00;;;;;;4988630;28;20493;-77
2020/12/18 11:50:28;;;;;;;4.77;4.37;;;23.10;91.60;;;;;;4988493;28;20462;-76
2020/12/18 11:52:55;;;;;;;4.23;3.83;;;21.90;91.80;;;;;;4988448;28;20576;-76
2020/12/18 11:55:22;;;;;;;5.23;4.20;;;21.00;93.00;;;;;;4988750;28;20462;-77
2020/12/18 11:57:49;;;;;;;4.90;4.40;;;21.00;92.80;;;;;;4988743;28;20470;-76
2020/12/18 12:00:19;;;;;;;4.47;3.77;;;21.00;93.20;;;;;;5058211;23;20532;-73
2020/12/18 12:02:46;;;;;;;4.37;3.97;;;21.30;92.20;;;;;;4981637;28;20566;-72
2020/12/18 12:05:12;;;;;;;5.80;4.20;;;21.40;92.00;;;;;;4968862;28;20859;-71
2020/12/18 12:07:38;;;;;;;4.27;3.87;;;21.50;92.00;;;;;;4960011;28;20456;-73
2020/12/18 12:10:05;;;;;;;5.00;3.70;;;21.80;92.10;;;;;;4967457;28;20509;-73
2020/12/18 12:12:31;;;;;;;4.33;3.93;;;21.70;91.90;;;;;;4970459;28;20483;-71
2020/12/18 12:14:58;;;;;;;4.03;3.70;;;21.00;92.00;;;;;;4971849;28;20474;-71
2020/12/18 12:17:24;;;;;;;3.93;3.63;;;20.40;92.50;;;;;;4971374;28;20458;-73
2020/12/18 12:19:50;;;;;;;4.37;3.97;;;20.30;92.80;;;;;;4971953;28;20463;-71
2020/12/18 12:22:19;;;;;;;3.57;3.27;;;19.50;92.90;;;;;;4970938;28;20462;-72
2020/12/18 12:24:48;;;;;;;4.17;3.77;;;18.90;94.00;;;;;;4970893;28;20804;-71
2020/12/18 12:27:15;;;;;;;8.20;4.07;;;18.60;93.90;;;;;;4957855;28;21033;-72
2020/12/18 12:29:41;;;;;;;3.50;3.20;;;18.30;94.60;;;;;;4956275;28;20465;-72
2020/12/18 12:32:08;;;;;;;3.83;3.53;;;18.40;93.90;;;;;;4953984;28;20464;-73
2020/12/18 12:34:34;;;;;;;3.83;3.53;;;18.40;94.20;;;;;;4952306;28;20839;-73
2020/12/18 12:37:01;;;;;;;4.27;3.87;;;18.10;94.60;;;;;;4967571;28;20455;-72
2020/12/18 12:39:27;;;;;;;4.27;3.40;;;18.00;95.10;;;;;;4971120;28;20955;-72
2020/12/18 12:41:54;;;;;;;5.07;4.37;;;18.00;95.60;;;;;;4968389;28;20517;-73
2020/12/18 12:44:20;;;;;;;3.90;3.20;;;18.30;94.90;;;;;;4951901;28;20542;-73
2020/12/18 12:46:46;;;;;;;4.07;3.70;;;18.20;95.40;;;;;;4952353;28;20498;-73
2020/12/18 12:49:13;;;;;;;4.60;3.30;;;18.40;95.10;;;;;;4962988;28;20839;-72
2020/12/18 12:51:40;;;;;;;3.77;3.20;;;18.20;94.80;;;;;;4965097;28;20463;-73
2020/12/18 12:54:06;;;;;;;4.73;3.50;;;18.40;95.30;;;;;;4970747;28;20479;-72